Webcam Rollhalt 06

Webcam Rollhalt 24

 

Flugplatz - Wetter - Augsburg

[Quelle: ADDS]
METAR
EDMA 200620Z AUTO 24006KT 9999 BKN078/// BKN100/// BKN180/// 21/17 Q1014 =
TAF
SR / SS: 03:16 / 19:22 UTC (Augsburg 2021-06-20)

Flugplatz - Wetter - Laupheim

[Quelle: ADDS]
METAR
ETHL 200620Z AUTO 18006KT 6000 // ////// 19/17 Q1015 /// =
TAF
SR / SS: 03:21 / 19:25 UTC (Laupheim 2021-06-20)

Flugplatz - Wetter - Memmingen

[Quelle: ADDS]
METAR
EDJA 200620Z 30005KT 270V330 9999 VCTS BKN052CB 18/17 Q1016 =
EDJA 200500Z 2006/2015 26006KT 9999 FEW045 PROB30 TEMPO 2006/2008 TSRA SCT040CB BECMG 2010/2012 03007KT
TAF
EDJA 200500Z 2006/2015 26006KT 9999 FEW045 PROB30 TEMPO 2006/2008 TSRA SCT040CB BECMG 2010/2012 03007KT =
SR / SS: 03:21 / 19:20 UTC (Memmingen 2021-06-20)

Flugplatz - Wetter - Neuburg/Donau

[Quelle: ADDS]
METAR
ETSN 200620Z VRB03KT 9999 FEW020CB SCT090 BKN150 23/17 Q1013 BLU =
AMD ETSN 200615Z 2005/2014 VRB03KT 9999 NSW FEW070 FEW140 TEMPO 2007/2009 VRB15G30KT 2000 TSRA SCT010 BKN20CB PROB30 2009/2011 VRB15G25KT 4000 SHRA SCT010 BKN030TCU BY ETGL
TAF
AMD ETSN 200615Z 2005/2014 VRB03KT 9999 NSW FEW070 FEW140 TEMPO 2007/2009 VRB15G30KT 2000 TSRA SCT010 BKN20CB PROB30 2009/2011 VRB15G25KT 4000 SHRA SCT010 BKN030TCU BY ETGL =
SR / SS: 03:13 / 19:20 UTC (Neuburg 2021-06-20)

Flugplatz - Wetter - Stuttgart

[Quelle: ADDS]
METAR
EDDS 200620Z 22003KT 110V280 9999 FEW045 23/17 Q1013 NOSIG =
EDDS 200500Z 2006/2106 VRB03KT CAVOK BECMG 2008/2011 11005KT TEMPO 2016/2020 17015G30KT TSRA BKN045CB BECMG 2016/2018 05005KT PROB30 TEMPO 2017/2020 19025G40KT 1500 +TSRAGR BECMG 2020/2022 23004KT
TAF
EDDS 200500Z 2006/2106 VRB03KT CAVOK BECMG 2008/2011 11005KT TEMPO 2016/2020 17015G30KT TSRA BKN045CB BECMG 2016/2018 05005KT PROB30 TEMPO 2017/2020 19025G40KT 1500 +TSRAGR BECMG 2020/2022 23004KT =
SR / SS: 03:21 / 19:28 UTC (Stuttgart 2021-06-20)

Flugplatz - Wetter - Niederstetten

[Quelle: ADDS]
METAR
ETHN 200620Z 25007KT 9999 SCT080 BKN130 BKN280 22/16 Q1014 BLU =
TAF
SR / SS: 03:16 / 19:30 UTC (Niederstetten 2021-06-20)